createdAt,value
2023-01-08T00:01:33.698Z,22.80
2023-01-08T00:04:02.064Z,23.10
2023-01-08T00:06:30.503Z,23.30
2023-01-08T00:08:58.633Z,23.40
2023-01-08T00:11:26.982Z,23.10
2023-01-08T00:13:55.434Z,22.70
2023-01-08T00:16:23.782Z,22.80
2023-01-08T00:18:52.028Z,23.00
2023-01-08T00:21:20.562Z,23.30
2023-01-08T00:23:48.814Z,23.40
2023-01-08T00:26:17.286Z,23.20
2023-01-08T00:28:45.575Z,22.80
2023-01-08T00:31:14.523Z,22.60
2023-01-08T00:33:43.112Z,22.70
2023-01-08T00:36:16.631Z,23.00
2023-01-08T00:38:46.377Z,23.30
2023-01-08T00:41:16.370Z,23.40
2023-01-08T00:43:44.882Z,23.10
2023-01-08T00:46:13.566Z,22.80
2023-01-08T00:48:41.695Z,22.60
2023-01-08T00:51:10.762Z,22.80
2023-01-08T00:53:39.177Z,23.10
2023-01-08T00:56:10.412Z,23.40
2023-01-08T00:58:39.117Z,23.40
2023-01-08T01:01:12.520Z,23.10
2023-01-08T01:03:41.021Z,22.70
2023-01-08T01:06:09.435Z,22.70
2023-01-08T01:08:37.833Z,23.00
2023-01-08T01:11:19.320Z,23.30
2023-01-08T01:13:48.391Z,23.40
2023-01-08T01:16:16.881Z,23.20
2023-01-08T01:18:45.649Z,22.80
2023-01-08T01:21:21.757Z,22.60
2023-01-08T01:23:50.462Z,22.70
2023-01-08T01:26:19.763Z,23.10
2023-01-08T01:28:50.415Z,23.30
2023-01-08T01:31:19.806Z,23.40
2023-01-08T01:33:48.230Z,23.10
2023-01-08T01:36:18.263Z,22.80
2023-01-08T01:38:50.921Z,22.70
2023-01-08T01:41:46.449Z,23.00
2023-01-08T01:44:43.669Z,23.30
2023-01-08T01:47:33.169Z,23.40
2023-01-08T01:50:31.074Z,23.10
2023-01-08T01:53:07.541Z,22.70
2023-01-08T01:55:38.330Z,22.70
2023-01-08T01:58:19.786Z,23.10
2023-01-08T02:00:48.204Z,23.30
2023-01-08T02:03:18.692Z,23.40
2023-01-08T02:06:04.152Z,23.20
2023-01-08T02:08:50.784Z,22.80
2023-01-08T02:11:28.372Z,22.60
2023-01-08T02:14:04.839Z,22.90
2023-01-08T02:16:50.248Z,23.20
2023-01-08T02:19:35.389Z,23.40
2023-01-08T02:22:23.579Z,23.20
2023-01-08T02:25:02.860Z,22.80
2023-01-08T02:27:32.593Z,22.60
2023-01-08T02:30:01.935Z,22.80
2023-01-08T02:32:37.453Z,23.10
2023-01-08T02:35:07.653Z,23.30
2023-01-08T02:37:37.594Z,23.40
2023-01-08T02:40:11.564Z,23.20
2023-01-08T02:42:58.770Z,22.80
2023-01-08T02:45:49.167Z,22.70
2023-01-08T02:48:42.386Z,23.00
2023-01-08T02:51:29.665Z,23.30
2023-01-08T02:54:05.379Z,23.40
2023-01-08T02:56:40.759Z,23.20
2023-01-08T02:59:11.915Z,22.80
2023-01-08T03:01:42.041Z,22.70
2023-01-08T03:04:22.582Z,22.90
2023-01-08T03:06:51.387Z,23.20
2023-01-08T03:09:20.137Z,23.40
2023-01-08T03:12:05.091Z,23.40
2023-01-08T03:14:47.161Z,23.00
2023-01-08T03:17:45.649Z,22.70
2023-01-08T03:20:19.454Z,22.90
2023-01-08T03:22:54.930Z,23.20
2023-01-08T03:25:26.070Z,23.40
2023-01-08T03:27:59.898Z,23.40
2023-01-08T03:30:30.128Z,23.10
2023-01-08T03:33:01.272Z,22.70
2023-01-08T03:35:32.404Z,22.70
2023-01-08T03:38:41.175Z,23.00
2023-01-08T03:41:14.008Z,23.30
2023-01-08T03:43:42.319Z,23.50
2023-01-08T03:46:19.757Z,23.40
2023-01-08T03:48:49.925Z,23.00
2023-01-08T03:51:18.106Z,22.60
2023-01-08T03:53:46.302Z,22.80
2023-01-08T03:56:14.608Z,23.10
2023-01-08T03:58:42.774Z,23.30
2023-01-08T04:01:11.011Z,23.50
2023-01-08T04:03:39.301Z,23.30
2023-01-08T04:06:07.764Z,22.90
2023-01-08T04:08:35.941Z,22.70
2023-01-08T04:11:04.240Z,22.90
2023-01-08T04:13:32.563Z,23.20
2023-01-08T04:16:00.957Z,23.40
2023-01-08T04:18:29.326Z,23.50
2023-01-08T04:20:57.622Z,23.20
2023-01-08T04:23:25.929Z,22.80
2023-01-08T04:25:54.405Z,22.70
2023-01-08T04:28:23.119Z,23.00
2023-01-08T04:30:51.329Z,23.20
2023-01-08T04:33:19.622Z,23.40
2023-01-08T04:35:47.913Z,23.50
2023-01-08T04:38:16.273Z,23.10
2023-01-08T04:40:45.145Z,22.70
2023-01-08T04:43:13.358Z,22.70
2023-01-08T04:45:41.687Z,23.00
2023-01-08T04:48:09.838Z,23.20
2023-01-08T04:50:38.053Z,23.40
2023-01-08T04:53:06.234Z,23.50
2023-01-08T04:55:34.691Z,23.10
2023-01-08T04:58:03.103Z,22.70
2023-01-08T05:00:31.536Z,22.70
2023-01-08T05:02:59.834Z,23.00
2023-01-08T05:05:29.631Z,23.20
2023-01-08T05:07:57.821Z,23.40
2023-01-08T05:10:26.478Z,23.40
2023-01-08T05:12:59.854Z,23.10
2023-01-08T05:15:28.435Z,22.80
2023-01-08T05:18:04.968Z,22.80
2023-01-08T05:20:34.310Z,23.10
2023-01-08T05:23:03.063Z,23.30
2023-01-08T05:25:31.210Z,23.40
2023-01-08T05:27:59.377Z,23.50
2023-01-08T05:30:27.480Z,23.20
2023-01-08T05:32:55.827Z,22.80
2023-01-08T05:35:24.058Z,22.70
2023-01-08T05:37:52.311Z,23.00
2023-01-08T05:40:20.481Z,23.20
2023-01-08T05:42:48.690Z,23.40
2023-01-08T05:45:17.067Z,23.60
2023-01-08T05:47:45.252Z,23.20
2023-01-08T05:50:13.487Z,22.80
2023-01-08T05:52:41.699Z,22.70
2023-01-08T05:55:10.291Z,23.00
2023-01-08T05:57:38.587Z,23.30
2023-01-08T06:00:08.917Z,23.40
2023-01-08T06:02:40.165Z,23.40
2023-01-08T06:05:08.695Z,23.10
2023-01-08T06:07:36.826Z,22.70
2023-01-08T06:10:05.471Z,22.80
2023-01-08T06:12:33.889Z,23.10
2023-01-08T06:15:02.218Z,23.30
2023-01-08T06:17:30.514Z,23.40
2023-01-08T06:19:58.898Z,23.50
2023-01-08T06:22:27.387Z,23.10
2023-01-08T06:24:55.633Z,22.70
2023-01-08T06:27:23.764Z,22.80
2023-01-08T06:29:52.243Z,23.00
2023-01-08T06:32:20.393Z,23.30
2023-01-08T06:34:48.774Z,23.40
2023-01-08T06:37:16.847Z,23.60
2023-01-08T06:39:45.230Z,23.30
2023-01-08T06:42:13.679Z,22.80
2023-01-08T06:44:41.879Z,22.70
2023-01-08T06:47:10.084Z,22.90
2023-01-08T06:49:38.411Z,23.10
2023-01-08T06:52:06.692Z,23.30
2023-01-08T06:54:34.986Z,23.40
2023-01-08T06:57:03.290Z,23.30
2023-01-08T06:59:31.346Z,22.90
2023-01-08T07:01:59.769Z,22.70
2023-01-08T07:04:28.153Z,22.90
2023-01-08T07:06:56.517Z,23.10
2023-01-08T07:09:24.738Z,23.30
2023-01-08T07:11:53.174Z,23.40
2023-01-08T07:14:21.655Z,23.40
2023-01-08T07:16:50.028Z,22.90
2023-01-08T07:19:18.164Z,22.70
2023-01-08T07:21:46.531Z,22.80
2023-01-08T07:24:14.651Z,23.00
2023-01-08T07:26:42.894Z,23.30
2023-01-08T07:29:11.191Z,23.40
2023-01-08T07:31:39.397Z,23.40
2023-01-08T07:34:07.848Z,23.00
2023-01-08T07:36:36.055Z,22.60
2023-01-08T07:39:04.667Z,22.70
2023-01-08T07:41:32.659Z,23.00
2023-01-08T07:44:02.525Z,23.20
2023-01-08T07:46:30.804Z,23.30
2023-01-08T07:48:59.155Z,23.50
2023-01-08T07:51:27.396Z,23.30
2023-01-08T07:53:55.702Z,22.90
2023-01-08T07:56:24.903Z,22.60
2023-01-08T07:58:53.159Z,22.90
2023-01-08T08:01:21.459Z,23.10
2023-01-08T08:03:49.648Z,23.30
2023-01-08T08:06:17.833Z,23.40
2023-01-08T08:08:46.304Z,23.20
2023-01-08T08:11:14.548Z,22.80
2023-01-08T08:13:42.767Z,22.70
2023-01-08T08:16:11.499Z,22.90
2023-01-08T08:18:39.498Z,23.10
2023-01-08T08:21:07.856Z,23.30
2023-01-08T08:23:36.860Z,23.40
2023-01-08T08:26:05.869Z,23.20
2023-01-08T08:28:34.385Z,22.80
2023-01-08T08:31:02.536Z,22.60
2023-01-08T08:33:30.918Z,22.80
2023-01-08T08:35:59.177Z,23.10
2023-01-08T08:38:27.582Z,23.30
2023-01-08T08:40:55.701Z,23.40
2023-01-08T08:43:23.978Z,23.30
2023-01-08T08:45:52.269Z,23.00
2023-01-08T08:48:20.447Z,22.60
2023-01-08T08:50:48.811Z,22.80
2023-01-08T08:53:16.984Z,23.00
2023-01-08T08:55:45.303Z,23.20
2023-01-08T08:58:14.077Z,23.30
2023-01-08T09:00:43.872Z,23.30
2023-01-08T09:03:15.925Z,22.90
2023-01-08T09:05:44.591Z,22.60
2023-01-08T09:08:13.736Z,22.70
2023-01-08T09:10:42.674Z,23.00
2023-01-08T09:13:11.892Z,23.20
2023-01-08T09:15:40.313Z,23.30
2023-01-08T09:18:08.619Z,23.30
2023-01-08T09:20:37.014Z,22.90
2023-01-08T09:23:05.246Z,22.50
2023-01-08T09:25:33.590Z,22.70
2023-01-08T09:28:05.151Z,22.90
2023-01-08T09:30:34.284Z,23.10
2023-01-08T09:33:04.104Z,23.30
2023-01-08T09:35:35.319Z,23.40
2023-01-08T09:38:03.597Z,23.10
2023-01-08T09:40:49.679Z,22.60
2023-01-08T09:43:23.448Z,22.70
2023-01-08T09:45:55.552Z,22.90
2023-01-08T09:48:28.627Z,23.20
2023-01-08T09:50:57.894Z,23.30
2023-01-08T09:53:26.605Z,23.30
2023-01-08T09:56:10.330Z,22.90
2023-01-08T09:58:48.052Z,22.60
2023-01-08T10:01:20.371Z,22.70
2023-01-08T10:03:53.176Z,22.90
2023-01-08T10:06:24.055Z,23.20
2023-01-08T10:08:53.026Z,23.30
2023-01-08T10:11:22.791Z,23.30
2023-01-08T10:13:54.412Z,22.90
2023-01-08T10:16:35.868Z,22.60
2023-01-08T10:19:05.294Z,22.80
2023-01-08T10:21:40.262Z,23.00
2023-01-08T10:24:08.972Z,23.20
2023-01-08T10:26:38.061Z,23.20
2023-01-08T10:29:21.173Z,22.90
2023-01-08T10:31:52.731Z,22.60
2023-01-08T10:34:28.545Z,22.70
2023-01-08T10:36:57.348Z,23.00
2023-01-08T10:39:28.819Z,23.20
2023-01-08T10:42:04.827Z,23.30
2023-01-08T10:44:34.147Z,23.20
2023-01-08T10:47:02.660Z,22.80
2023-01-08T10:49:43.383Z,22.50
2023-01-08T10:52:30.392Z,22.60
2023-01-08T10:54:58.804Z,22.90
2023-01-08T10:57:30.885Z,23.10
2023-01-08T10:59:59.142Z,23.30
2023-01-08T11:02:39.357Z,23.30
2023-01-08T11:05:09.834Z,22.80
2023-01-08T11:07:38.360Z,22.50
2023-01-08T11:10:07.336Z,22.70
2023-01-08T11:12:37.283Z,23.00
2023-01-08T11:15:28.635Z,23.20
2023-01-08T11:18:14.132Z,23.40
2023-01-08T11:20:44.240Z,23.20
2023-01-08T11:23:23.005Z,22.80
2023-01-08T11:26:18.923Z,22.50
2023-01-08T11:28:59.531Z,22.70
2023-01-08T11:31:51.049Z,23.00
2023-01-08T11:34:47.339Z,23.30
2023-01-08T11:37:25.259Z,23.30
2023-01-08T11:39:55.351Z,22.90
2023-01-08T11:42:32.956Z,22.60
2023-01-08T11:45:01.098Z,22.60
2023-01-08T11:47:38.626Z,22.80
2023-01-08T11:50:22.361Z,23.10
2023-01-08T11:53:10.652Z,23.30
2023-01-08T11:56:09.601Z,23.20
2023-01-08T11:58:46.765Z,22.80
2023-01-08T12:01:24.177Z,22.50
2023-01-08T12:04:29.500Z,22.70
2023-01-08T12:07:02.375Z,23.00
2023-01-08T12:09:50.886Z,23.30
2023-01-08T12:12:25.407Z,23.20
2023-01-08T12:14:56.582Z,22.90
2023-01-08T12:18:04.879Z,22.60
2023-01-08T12:20:43.881Z,22.70
2023-01-08T12:23:31.485Z,22.90
2023-01-08T12:26:19.771Z,23.20
2023-01-08T12:29:00.296Z,23.40
2023-01-08T12:31:31.269Z,23.10
2023-01-08T12:34:16.575Z,22.70
2023-01-08T12:36:49.152Z,22.60
2023-01-08T12:39:26.835Z,22.80
2023-01-08T12:42:09.417Z,23.10
2023-01-08T12:44:39.942Z,23.20
2023-01-08T12:47:14.185Z,23.00
2023-01-08T12:49:57.593Z,22.70
2023-01-08T12:52:56.389Z,22.50
2023-01-08T12:55:41.679Z,22.80
2023-01-08T12:58:15.757Z,23.10
2023-01-08T13:00:52.348Z,23.30
2023-01-08T13:03:25.821Z,23.20
2023-01-08T13:06:05.395Z,22.90
2023-01-08T13:08:38.480Z,22.60
2023-01-08T13:11:07.969Z,22.60
2023-01-08T13:13:42.689Z,22.90
2023-01-08T13:16:15.047Z,23.20
2023-01-08T13:18:53.358Z,23.30
2023-01-08T13:21:31.451Z,23.10
2023-01-08T13:24:06.859Z,22.80
2023-01-08T13:26:37.236Z,22.50
2023-01-08T13:29:24.240Z,22.70
2023-01-08T13:31:52.869Z,23.00
2023-01-08T13:34:22.325Z,23.20
2023-01-08T13:36:58.118Z,23.20
2023-01-08T13:39:34.473Z,22.80
2023-01-08T13:42:05.122Z,22.60
2023-01-08T13:44:42.766Z,22.60
2023-01-08T13:47:27.920Z,22.90
2023-01-08T13:49:57.397Z,23.20
2023-01-08T13:52:28.800Z,23.30
2023-01-08T13:54:57.370Z,23.10
2023-01-08T13:57:25.903Z,22.80
2023-01-08T13:59:59.658Z,22.60
2023-01-08T14:02:43.428Z,22.70
2023-01-08T14:05:29.920Z,23.00
2023-01-08T14:07:59.023Z,23.20
2023-01-08T14:10:29.147Z,23.30
2023-01-08T14:13:09.644Z,23.10
2023-01-08T14:15:39.805Z,22.70
2023-01-08T14:18:08.408Z,22.60
2023-01-08T14:20:44.338Z,22.70
2023-01-08T14:23:19.092Z,23.00
2023-01-08T14:25:50.859Z,23.30
2023-01-08T14:28:24.073Z,23.30
2023-01-08T14:30:54.498Z,23.00
2023-01-08T14:33:32.134Z,22.70
2023-01-08T14:36:02.036Z,22.50
2023-01-08T14:38:30.360Z,22.70
2023-01-08T14:41:14.148Z,23.00
2023-01-08T14:43:50.016Z,23.30
2023-01-08T14:46:29.742Z,23.20
2023-01-08T14:48:58.884Z,22.90
2023-01-08T14:51:29.263Z,22.70
2023-01-08T14:54:02.865Z,22.50
2023-01-08T14:56:33.869Z,22.50
2023-01-08T14:59:09.876Z,22.60
2023-01-08T15:01:38.782Z,22.90
2023-01-08T15:04:16.663Z,23.20
2023-01-08T15:06:45.332Z,23.20
2023-01-08T15:09:24.721Z,22.90
2023-01-08T15:11:58.133Z,22.70
2023-01-08T15:14:28.775Z,22.60
2023-01-08T15:16:59.970Z,22.50
2023-01-08T15:19:31.483Z,22.70
2023-01-08T15:22:02.446Z,22.90
2023-01-08T15:24:39.159Z,23.30
2023-01-08T15:27:08.172Z,23.30
2023-01-08T15:29:48.253Z,22.90
2023-01-08T15:32:16.512Z,22.70
2023-01-08T15:34:47.100Z,22.60
2023-01-08T15:37:35.316Z,22.80
2023-01-08T15:40:03.660Z,23.10
2023-01-08T15:42:33.711Z,23.40
2023-01-08T15:45:02.102Z,23.20
2023-01-08T15:47:30.448Z,22.90
2023-01-08T15:49:58.745Z,22.70
2023-01-08T15:52:28.809Z,22.60
2023-01-08T15:55:01.550Z,22.80
2023-01-08T15:57:29.776Z,23.10
2023-01-08T15:59:58.257Z,23.30
2023-01-08T16:02:26.889Z,23.30
2023-01-08T16:04:56.447Z,22.90
2023-01-08T16:07:24.710Z,22.70
2023-01-08T16:09:52.909Z,22.60
2023-01-08T16:12:20.967Z,22.50
2023-01-08T16:14:49.328Z,22.40
2023-01-08T16:17:17.564Z,22.40
2023-01-08T16:19:46.182Z,22.40
2023-01-08T16:22:14.343Z,22.70
2023-01-08T16:24:42.481Z,23.00
2023-01-08T16:27:10.838Z,23.30
2023-01-08T16:29:39.064Z,23.20
2023-01-08T16:32:07.491Z,22.90
2023-01-08T16:34:36.054Z,22.70
2023-01-08T16:37:04.283Z,22.60
2023-01-08T16:39:32.608Z,22.60
2023-01-08T16:42:01.317Z,22.90
2023-01-08T16:44:29.795Z,23.20
2023-01-08T16:46:59.160Z,23.30
2023-01-08T16:49:27.510Z,23.10
2023-01-08T16:51:55.877Z,22.80
2023-01-08T16:54:24.247Z,22.60
2023-01-08T16:56:53.436Z,22.50
2023-01-08T16:59:23.716Z,22.50
2023-01-08T17:01:53.405Z,22.40
2023-01-08T17:04:22.012Z,22.70
2023-01-08T17:06:50.419Z,23.00
2023-01-08T17:09:18.664Z,23.30
2023-01-08T17:11:48.253Z,23.30
2023-01-08T17:14:16.778Z,23.10
2023-01-08T17:16:45.689Z,22.80
2023-01-08T17:19:14.438Z,22.60
2023-01-08T17:21:42.948Z,22.60
2023-01-08T17:24:11.098Z,22.90
2023-01-08T17:26:39.347Z,23.20
2023-01-08T17:29:08.889Z,23.40
2023-01-08T17:31:37.257Z,23.20
2023-01-08T17:34:06.282Z,22.90
2023-01-08T17:36:34.895Z,22.70
2023-01-08T17:39:03.754Z,22.50
2023-01-08T17:41:32.202Z,22.60
2023-01-08T17:44:01.129Z,22.90
2023-01-08T17:46:29.758Z,23.20
2023-01-08T17:48:57.847Z,23.40
2023-01-08T17:51:26.158Z,23.10
2023-01-08T17:53:54.502Z,22.80
2023-01-08T17:56:22.865Z,22.70
2023-01-08T17:58:51.528Z,22.90
2023-01-08T18:01:20.237Z,23.20
2023-01-08T18:03:48.828Z,23.40
2023-01-08T18:06:17.117Z,23.30
2023-01-08T18:08:45.585Z,23.00
2023-01-08T18:11:13.984Z,22.70
2023-01-08T18:13:42.231Z,22.70
2023-01-08T18:16:12.736Z,22.90
2023-01-08T18:18:41.754Z,23.20
2023-01-08T18:21:10.549Z,23.40
2023-01-08T18:23:38.831Z,23.30
2023-01-08T18:26:10.821Z,22.90
2023-01-08T18:28:40.723Z,22.70
2023-01-08T18:31:11.119Z,22.70
2023-01-08T18:33:40.432Z,23.10
2023-01-08T18:36:12.158Z,23.30
2023-01-08T18:38:43.075Z,23.40
2023-01-08T18:41:14.270Z,23.00
2023-01-08T18:43:42.467Z,22.80
2023-01-08T18:46:10.489Z,22.60
2023-01-08T18:48:38.769Z,22.90
2023-01-08T18:51:07.032Z,23.20
2023-01-08T18:53:35.560Z,23.40
2023-01-08T18:56:03.765Z,23.30
2023-01-08T18:58:32.296Z,22.90
2023-01-08T19:01:05.396Z,22.70
2023-01-08T19:03:34.670Z,22.80
2023-01-08T19:06:02.946Z,23.10
2023-01-08T19:08:31.278Z,23.30
2023-01-08T19:11:04.586Z,23.40
2023-01-08T19:13:32.931Z,23.10
2023-01-08T19:16:09.564Z,22.70
2023-01-08T19:18:39.760Z,22.70
2023-01-08T19:21:10.204Z,23.00
2023-01-08T19:23:38.680Z,23.30
2023-01-08T19:26:08.775Z,23.40
2023-01-08T19:28:37.455Z,23.30
2023-01-08T19:31:06.663Z,22.90
2023-01-08T19:33:35.083Z,22.70
2023-01-08T19:36:04.739Z,22.90
2023-01-08T19:38:33.052Z,23.20
2023-01-08T19:41:01.356Z,23.40
2023-01-08T19:43:30.527Z,23.30
2023-01-08T19:46:08.054Z,23.00
2023-01-08T19:48:36.425Z,22.70
2023-01-08T19:51:12.260Z,22.80
2023-01-08T19:53:40.842Z,23.10
2023-01-08T19:56:12.421Z,23.30
2023-01-08T19:58:40.911Z,23.50
2023-01-08T20:01:17.723Z,23.20
2023-01-08T20:03:46.383Z,22.90
2023-01-08T20:07:53.060Z,22.90
2023-01-08T20:10:21.712Z,23.30
2023-01-08T20:12:49.618Z,23.40
2023-01-08T20:15:18.103Z,23.10
2023-01-08T20:17:46.332Z,22.80
2023-01-08T20:20:14.508Z,22.60
2023-01-08T20:22:42.953Z,22.90
2023-01-08T20:25:11.220Z,23.20
2023-01-08T20:27:39.516Z,23.40
2023-01-08T20:30:08.443Z,23.40
2023-01-08T20:32:36.657Z,23.10
2023-01-08T20:35:05.246Z,22.80
2023-01-08T20:37:33.549Z,22.80
2023-01-08T20:40:02.004Z,23.10
2023-01-08T20:42:34.029Z,23.30
2023-01-08T20:45:02.949Z,23.40
2023-01-08T20:47:31.067Z,23.10
2023-01-08T20:49:59.523Z,22.80
2023-01-08T20:52:30.856Z,22.70
2023-01-08T20:54:59.158Z,23.00
2023-01-08T20:57:27.368Z,23.20
2023-01-08T20:59:55.766Z,23.40
2023-01-08T21:05:39.827Z,23.50
2023-01-08T21:08:08.172Z,23.80
2023-01-08T21:10:36.881Z,23.70
2023-01-08T21:13:05.364Z,23.30
2023-01-08T21:15:37.035Z,22.90
2023-01-08T21:18:05.619Z,22.70
2023-01-08T21:20:33.823Z,22.80
2023-01-08T21:23:02.071Z,23.10
2023-01-08T21:25:31.215Z,23.30
2023-01-08T21:27:59.341Z,23.40
2023-01-08T21:30:27.968Z,23.20
2023-01-08T21:32:56.322Z,22.90
2023-01-08T21:35:24.698Z,22.70
2023-01-08T21:37:53.160Z,22.90
2023-01-08T21:40:21.574Z,23.20
2023-01-08T21:42:49.837Z,23.40
2023-01-08T21:45:18.368Z,23.40
2023-01-08T21:47:46.729Z,22.90
2023-01-08T21:50:15.062Z,22.70
2023-01-08T21:52:43.533Z,22.90
2023-01-08T21:55:12.880Z,23.10
2023-01-08T21:57:42.669Z,23.30
2023-01-08T22:00:12.430Z,23.40
2023-01-08T22:02:41.058Z,23.40
2023-01-08T22:05:09.757Z,23.00
2023-01-08T22:07:38.327Z,22.70
2023-01-08T22:10:07.736Z,22.80
2023-01-08T22:12:36.089Z,23.10
2023-01-08T22:15:04.750Z,23.40
2023-01-08T22:17:32.682Z,23.50
2023-01-08T22:20:00.993Z,23.30
2023-01-08T22:22:29.756Z,22.90
2023-01-08T22:24:58.003Z,22.70
2023-01-08T22:27:26.334Z,22.90
2023-01-08T22:29:54.769Z,23.20
2023-01-08T22:32:23.372Z,23.40
2023-01-08T22:34:51.642Z,23.40
2023-01-08T22:37:20.070Z,23.00
2023-01-08T22:39:49.171Z,22.70
2023-01-08T22:42:18.469Z,22.80
2023-01-08T22:44:46.647Z,23.10
2023-01-08T22:47:15.045Z,23.30
2023-01-08T22:49:43.198Z,23.40
2023-01-08T22:52:11.700Z,23.10
2023-01-08T22:54:40.244Z,22.80
2023-01-08T22:57:08.992Z,22.70
2023-01-08T22:59:38.957Z,22.90
2023-01-08T23:02:07.498Z,23.20
2023-01-08T23:04:35.769Z,23.40
2023-01-08T23:07:04.302Z,23.30
2023-01-08T23:09:32.788Z,23.00
2023-01-08T23:12:00.947Z,22.70
2023-01-08T23:14:29.331Z,22.80
2023-01-08T23:16:57.496Z,23.10
2023-01-08T23:19:25.746Z,23.40
2023-01-08T23:21:54.168Z,23.40
2023-01-08T23:24:22.462Z,23.00
2023-01-08T23:26:52.701Z,22.70
2023-01-08T23:29:21.420Z,22.70
2023-01-08T23:31:49.449Z,23.00
2023-01-08T23:34:17.731Z,23.20
2023-01-08T23:36:45.980Z,23.40
2023-01-08T23:39:14.276Z,23.30
2023-01-08T23:41:42.624Z,22.90
2023-01-08T23:44:15.941Z,22.70
2023-01-08T23:46:44.301Z,22.80
2023-01-08T23:49:12.987Z,23.10
2023-01-08T23:51:41.310Z,23.30
2023-01-08T23:54:10.906Z,23.40
2023-01-08T23:56:40.113Z,23.10
2023-01-08T23:59:09.014Z,22.80
